Time;durP1;ratioP1;P1;durP2;ratioP2;P2;SDS_P1;SDS_P2;PMS_P1;PMS_P2;Temp;Humidity;BMP_temperature;BMP_pressure;BME280_temperature;BME280_humidity;BME280_pressure;Samples;Min_cycle;Max_cycle;Signal;HPM_P1;HPM_P2
2022/12/23 11:19:41;;;;;;;;;1.00;0.00;;;;;19.11;52.24;100321.38;5083940;27;46014;-86
2022/12/23 11:22:21;;;;;;;;;0.00;0.00;;;;;19.55;52.63;100338.69;5072571;27;45452;-81
2022/12/23 11:24:46;;;;;;;;;1.00;0.00;;;;;20.03;52.89;100323.19;5063797;28;45503;-91
2022/12/23 11:27:14;;;;;;;;;1.00;1.00;;;;;20.57;53.31;100327.63;5070632;27;45384;-80
2022/12/23 11:29:46;;;;;;;;;1.67;0.00;;;;;21.11;52.60;100360.81;5055482;28;45497;-82
2022/12/23 11:32:25;;;;;;;;;0.00;0.00;;;;;21.63;52.07;100350.88;5060314;27;45320;-83
2022/12/23 11:34:52;;;;;;;;;0.00;0.00;;;;;22.08;51.39;100348.78;5068795;27;45469;-85
2022/12/23 11:37:38;;;;;;;;;0.00;0.00;;;;;22.51;50.73;100343.16;5060711;28;45404;-82
2022/12/23 11:40:05;;;;;;;;;0.33;0.00;;;;;22.87;50.57;100350.03;5057495;28;46394;-83
2022/12/23 11:42:33;;;;;;;;;1.33;1.33;;;;;23.18;49.24;100343.84;5061165;27;45512;-77
2022/12/23 11:44:59;;;;;;;;;1.00;0.00;;;;;23.47;48.81;100352.38;5059539;28;45699;-79
2022/12/23 11:47:33;;;;;;;;;2.00;0.00;;;;;23.72;48.65;100352.22;5066346;27;45550;-83
2022/12/23 16:29:49;;;;;;;;;2.00;0.00;;;;;18.80;51.34;100577.88;5123504;27;45810;-92
2022/12/23 16:32:17;;;;;;;;;0.00;0.00;;;;;19.08;52.15;100571.81;5110454;27;45534;-81
2022/12/23 16:34:48;;;;;;;;;0.00;0.00;;;;;19.52;52.95;100568.63;5111910;27;45587;-90
2022/12/23 16:37:13;;;;;;;;;1.00;0.33;;;;;19.99;53.03;100562.38;5109296;27;45599;-87
2022/12/23 16:39:40;;;;;;;;;0.00;0.00;;;;;20.48;52.46;100560.44;5109408;27;45742;-90
2022/12/23 16:42:05;;;;;;;;;0.33;0.33;;;;;21.00;52.48;100581.34;5114326;27;45405;-96
2022/12/23 16:44:30;;;;;;;;;1.00;0.00;;;;;21.49;51.85;100587.28;5112395;27;45432;-78
2022/12/23 16:47:07;;;;;;;;;1.67;1.67;;;;;21.95;51.57;100582.47;5111475;27;45454;-86
2022/12/23 16:49:34;;;;;;;;;2.00;0.00;;;;;22.39;50.90;100583.31;5109348;27;45657;-80
2022/12/23 16:52:05;;;;;;;;;1.00;1.00;;;;;22.77;50.50;100596.47;5115072;27;45528;-78
2022/12/23 16:54:30;;;;;;;;;0.00;0.00;;;;;23.12;49.65;100593.59;5121414;27;45528;-76
2022/12/23 16:56:55;;;;;;;;;1.00;1.00;;;;;23.42;49.32;100599.38;5115548;27;45476;-79
2022/12/23 16:59:21;;;;;;;;;0.33;0.33;;;;;23.69;48.70;100603.53;5115349;27;45708;-79
2022/12/23 17:01:47;;;;;;;;;0.00;0.00;;;;;23.95;48.28;100612.47;5113911;27;45375;-77
2022/12/23 17:04:13;;;;;;;;;1.33;1.00;;;;;24.17;47.78;100607.31;5110245;27;45513;-82
2022/12/23 17:06:39;;;;;;;;;0.67;0.67;;;;;24.37;47.46;100607.72;5111239;27;46343;-77
2022/12/23 17:09:06;;;;;;;;;0.00;0.00;;;;;24.54;46.71;100604.91;5108890;27;46245;-79
2022/12/23 17:11:34;;;;;;;;;1.00;1.00;;;;;24.71;46.84;100613.78;5120368;27;45553;-76
2022/12/23 17:14:00;;;;;;;;;0.00;0.00;;;;;24.85;46.29;100623.91;5112047;27;45551;-77
2022/12/23 17:16:25;;;;;;;;;0.00;0.00;;;;;24.97;45.76;100613.47;5112050;27;45405;-80
2022/12/23 17:18:51;;;;;;;;;0.00;0.00;;;;;25.11;45.39;100630.84;5109344;27;55606;-77
2022/12/23 17:21:28;;;;;;;;;0.00;0.00;;;;;25.23;45.27;100631.28;5110552;27;45454;-76
2022/12/23 17:23:57;;;;;;;;;0.00;0.00;;;;;25.35;45.18;100647.13;5111146;27;45395;-76
2022/12/23 17:26:22;;;;;;;;;0.00;0.00;;;;;25.46;44.59;100654.00;5111216;27;45603;-77
2022/12/23 17:28:48;;;;;;;;;1.00;1.00;;;;;25.55;44.63;100641.16;5109924;27;45801;-76
2022/12/23 17:31:14;;;;;;;;;0.33;0.33;;;;;25.62;43.98;100640.28;5095640;27;51724;-76
2022/12/23 17:33:39;;;;;;;;;1.33;0.00;;;;;25.70;43.61;100658.38;5102047;27;45428;-77
2022/12/23 17:41:23;;;;;;;;;0.00;0.00;;;;;25.56;43.08;100665.47;5039441;27;46609;-79
2022/12/23 17:43:49;;;;;;;;;0.67;0.67;;;;;25.50;43.02;100661.59;5027636;28;45352;-84
2022/12/23 17:46:14;;;;;;;;;1.33;1.33;;;;;25.52;43.32;100672.28;5027773;28;45331;-83
